Time;durP1;ratioP1;P1;durP2;ratioP2;P2;SDS_P1;SDS_P2;PMS_P1;PMS_P2;Temp;Humidity;BMP_temperature;BMP_pressure;BME280_temperature;BME280_humidity;BME280_pressure;Samples;Min_cycle;Max_cycle;Signal;HPM_P1;HPM_P2
2022/04/19 00:02:25;;;;;;;4.90;2.37;;;4.90;99.90;;;;;;7324075;32;20539;-60
2022/04/19 00:06:26;;;;;;;5.37;2.58;;;4.90;99.90;;;;;;7326804;32;20242;-60
2022/04/19 00:10:28;;;;;;;5.28;2.55;;;4.90;99.90;;;;;;7323410;32;20462;-60
2022/04/19 00:14:33;;;;;;;4.28;2.22;;;4.90;99.90;;;;;;7318926;32;20103;-61
2022/04/19 00:18:35;;;;;;;3.85;2.35;;;4.80;99.90;;;;;;7320970;32;20096;-60
2022/04/19 00:22:38;;;;;;;6.10;2.80;;;4.80;99.90;;;;;;7319121;32;20150;-60
2022/04/19 00:26:41;;;;;;;6.18;2.42;;;4.80;99.90;;;;;;7317210;32;20165;-61
2022/04/19 00:30:46;;;;;;;5.40;2.60;;;4.80;99.90;;;;;;7316985;32;20194;-62
2022/04/19 00:34:47;;;;;;;4.72;2.30;;;4.80;99.90;;;;;;7315921;32;20123;-61
2022/04/19 00:38:49;;;;;;;4.75;2.58;;;4.80;99.90;;;;;;7327617;32;20667;-62
2022/04/19 00:42:53;;;;;;;6.22;2.83;;;4.80;99.90;;;;;;7320326;32;20191;-61
2022/04/19 00:46:55;;;;;;;5.95;2.95;;;4.70;99.90;;;;;;7324102;32;20736;-62
2022/04/19 00:50:57;;;;;;;5.72;2.47;;;4.70;99.90;;;;;;7325940;32;20128;-60
2022/04/19 00:54:59;;;;;;;4.95;2.60;;;4.70;99.90;;;;;;7331113;32;20504;-61
2022/04/19 00:59:02;;;;;;;4.43;2.60;;;4.70;99.90;;;;;;7322094;32;20096;-60
2022/04/19 01:03:03;;;;;;;7.28;3.12;;;4.60;99.90;;;;;;7323331;32;20107;-60
2022/04/19 01:07:08;;;;;;;5.47;2.70;;;4.60;99.90;;;;;;7324786;32;20183;-61
2022/04/19 01:15:30;;;;;;;4.37;2.75;;;4.60;99.90;;;;;;7317855;32;20210;-61
2022/04/19 01:19:35;;;;;;;6.37;3.15;;;4.40;99.90;;;;;;7320664;32;20612;-63
2022/04/19 01:23:39;;;;;;;6.37;3.40;;;4.50;99.90;;;;;;7333779;32;20478;-60
2022/04/19 01:27:40;;;;;;;4.15;2.70;;;4.40;99.90;;;;;;7326137;32;20687;-61
2022/04/19 01:31:43;;;;;;;7.65;3.30;;;4.40;99.90;;;;;;7324739;32;20099;-61
2022/04/19 01:35:44;;;;;;;4.80;2.90;;;4.30;99.90;;;;;;7323223;32;20112;-60
2022/04/19 01:44:07;;;;;;;7.80;3.65;;;4.30;99.90;;;;;;7328892;32;20198;-60
2022/04/19 01:48:09;;;;;;;8.73;2.95;;;4.20;99.90;;;;;;7321980;32;20100;-61
2022/04/19 01:52:11;;;;;;;4.95;2.87;;;4.20;99.90;;;;;;7318704;32;20118;-61
2022/04/19 01:56:13;;;;;;;4.45;2.78;;;4.20;99.90;;;;;;7315374;32;20197;-61
2022/04/19 02:00:16;;;;;;;5.72;3.17;;;4.10;99.90;;;;;;7323219;32;20462;-61
2022/04/19 02:04:18;;;;;;;5.32;2.87;;;4.20;99.90;;;;;;7317905;32;20464;-61
2022/04/19 02:08:20;;;;;;;5.55;3.05;;;4.20;99.90;;;;;;7317636;32;20268;-62
2022/04/19 02:12:24;;;;;;;7.75;3.10;;;4.10;99.90;;;;;;7322525;32;20103;-61
2022/04/19 02:16:25;;;;;;;7.28;3.40;;;4.10;99.90;;;;;;7320203;32;20222;-61
2022/04/19 02:20:27;;;;;;;5.22;3.00;;;4.00;99.90;;;;;;7304061;32;20197;-60
2022/04/19 02:24:28;;;;;;;6.70;3.10;;;4.00;99.90;;;;;;7313891;32;20104;-59
2022/04/19 02:28:31;;;;;;;6.40;2.95;;;4.00;99.90;;;;;;7312404;32;20138;-61
2022/04/19 02:32:33;;;;;;;4.82;2.55;;;4.00;99.90;;;;;;7315434;32;20365;-59
2022/04/19 02:36:35;;;;;;;4.22;2.70;;;3.90;99.90;;;;;;7325638;32;20138;-59
2022/04/19 02:40:37;;;;;;;4.47;2.70;;;3.80;99.90;;;;;;7321700;32;20138;-60
2022/04/19 02:44:39;;;;;;;8.13;2.72;;;3.80;99.90;;;;;;7322552;32;20104;-59
2022/04/19 02:48:41;;;;;;;5.43;2.97;;;3.80;99.90;;;;;;7319625;32;20126;-59
2022/04/19 02:52:43;;;;;;;5.78;2.80;;;3.70;99.90;;;;;;7322867;32;20269;-59
2022/04/19 02:56:44;;;;;;;5.53;2.75;;;3.70;99.90;;;;;;7319842;32;20323;-60
2022/04/19 03:00:46;;;;;;;4.30;2.47;;;3.60;99.90;;;;;;7325078;32;20162;-60
2022/04/19 03:04:51;;;;;;;4.22;2.75;;;3.70;99.90;;;;;;7320609;32;20245;-59
2022/04/19 03:08:53;;;;;;;5.15;2.97;;;3.60;99.90;;;;;;7309699;32;20230;-61
2022/04/19 03:12:55;;;;;;;4.75;2.67;;;3.50;99.90;;;;;;7329130;32;20208;-61
2022/04/19 03:16:57;;;;;;;5.35;3.03;;;3.50;99.90;;;;;;7319323;32;20495;-60
2022/04/19 03:20:59;;;;;;;5.00;2.87;;;3.40;99.90;;;;;;7316498;32;20282;-61
2022/04/19 03:29:22;;;;;;;4.07;2.62;;;3.40;99.90;;;;;;7315290;32;20267;-61
2022/04/19 03:33:24;;;;;;;3.25;2.42;;;3.30;99.90;;;;;;7317374;32;20288;-60
2022/04/19 03:37:25;;;;;;;5.65;2.40;;;3.30;99.90;;;;;;7319978;32;20539;-61
2022/04/19 03:41:27;;;;;;;8.65;2.70;;;3.30;99.90;;;;;;7317036;32;20258;-60
2022/04/19 03:45:29;;;;;;;4.57;2.95;;;3.30;99.90;;;;;;7321598;32;20481;-61
2022/04/19 03:49:32;;;;;;;3.90;2.58;;;3.30;99.90;;;;;;7324414;32;20104;-59
2022/04/19 03:53:34;;;;;;;13.52;6.00;;;3.20;99.90;;;;;;7320374;32;20220;-61
2022/04/19 03:57:35;;;;;;;5.20;2.40;;;3.10;99.90;;;;;;7317992;32;20443;-61
2022/04/19 04:01:38;;;;;;;7.28;2.75;;;3.10;99.90;;;;;;7321025;32;20203;-59
2022/04/19 04:05:40;;;;;;;3.83;2.28;;;3.10;99.90;;;;;;7316244;32;20214;-61
2022/04/19 04:09:41;;;;;;;4.45;2.78;;;3.00;99.90;;;;;;7311789;32;20581;-60
2022/04/19 04:13:43;;;;;;;6.05;2.05;;;3.00;99.90;;;;;;7318927;32;20542;-60
2022/04/19 04:17:44;;;;;;;4.35;2.40;;;2.90;99.90;;;;;;7320732;32;20169;-60
2022/04/19 04:21:46;;;;;;;4.22;2.50;;;2.90;99.90;;;;;;7332095;32;20336;-60
2022/04/19 04:25:48;;;;;;;4.78;2.75;;;2.90;99.90;;;;;;7327184;32;20107;-60
2022/04/19 04:29:49;;;;;;;4.85;2.72;;;2.90;99.90;;;;;;7324063;32;20145;-60
2022/04/19 04:33:51;;;;;;;3.15;2.12;;;2.90;99.90;;;;;;7324961;32;20207;-62
2022/04/19 04:37:53;;;;;;;5.47;2.60;;;2.90;99.90;;;;;;7323954;32;20139;-60
2022/04/19 04:41:54;;;;;;;5.30;3.00;;;2.80;99.90;;;;;;7325737;32;20125;-60
2022/04/19 04:50:16;;;;;;;4.82;2.60;;;2.80;99.90;;;;;;7325629;32;20123;-61
2022/04/19 04:54:18;;;;;;;4.10;2.37;;;2.80;99.90;;;;;;7325572;32;20096;-64
2022/04/19 04:58:19;;;;;;;4.57;2.85;;;2.90;99.90;;;;;;7325899;32;20095;-63
2022/04/19 05:02:23;;;;;;;9.77;6.00;;;2.90;99.90;;;;;;7315049;32;20194;-63
2022/04/19 05:06:25;;;;;;;5.37;2.55;;;2.90;99.90;;;;;;7323102;32;20218;-62
2022/04/19 05:10:26;;;;;;;4.90;3.03;;;2.90;99.90;;;;;;7324858;32;20356;-62
2022/04/19 05:14:28;;;;;;;5.60;2.95;;;2.90;99.90;;;;;;7325991;32;20114;-62
2022/04/19 05:18:33;;;;;;;5.47;3.00;;;2.90;99.90;;;;;;7321288;32;20107;-62
2022/04/19 05:22:34;;;;;;;8.60;3.62;;;3.00;99.90;;;;;;7328000;32;20108;-62
2022/04/19 05:26:37;;;;;;;5.25;3.20;;;3.10;99.90;;;;;;7333956;32;20134;-63
2022/04/19 05:30:39;;;;;;;7.97;3.37;;;3.20;99.90;;;;;;7325704;32;20095;-66
2022/04/19 05:34:40;;;;;;;5.97;3.12;;;3.30;99.90;;;;;;7322298;32;20119;-62
2022/04/19 05:38:42;;;;;;;5.57;3.65;;;3.40;99.90;;;;;;7324407;32;20254;-62
2022/04/19 05:42:44;;;;;;;8.40;2.90;;;3.50;99.90;;;;;;7325733;32;20735;-61
2022/04/19 05:46:46;;;;;;;5.35;3.20;;;3.70;99.90;;;;;;7321471;32;20228;-64
2022/04/19 05:50:47;;;;;;;13.95;9.10;;;3.80;99.90;;;;;;7316639;32;20096;-61
2022/04/19 05:54:49;;;;;;;7.75;5.25;;;4.00;99.90;;;;;;7326884;32;20778;-63
2022/04/19 05:58:51;;;;;;;5.90;3.62;;;4.10;99.90;;;;;;7318772;32;20622;-62
2022/04/19 06:07:13;;;;;;;5.53;3.00;;;4.40;99.90;;;;;;7318176;32;20122;-63
2022/04/19 06:11:14;;;;;;;7.45;3.17;;;4.60;99.90;;;;;;7313254;32;20528;-62
2022/04/19 06:15:16;;;;;;;9.88;5.10;;;4.80;99.90;;;;;;7316680;32;20908;-63
2022/04/19 06:19:18;;;;;;;8.40;4.35;;;4.90;99.90;;;;;;7323685;32;20614;-63
2022/04/19 06:23:20;;;;;;;7.32;4.22;;;5.10;99.90;;;;;;7323025;32;20499;-60
2022/04/19 06:27:22;;;;;;;7.55;4.65;;;5.40;99.90;;;;;;7319770;32;20738;-62
2022/04/19 06:31:24;;;;;;;7.95;4.22;;;6.10;99.90;;;;;;7325900;32;20213;-63
2022/04/19 06:35:26;;;;;;;6.60;4.40;;;6.30;99.90;;;;;;7321769;32;20118;-61
2022/04/19 06:39:27;;;;;;;8.18;4.32;;;6.70;99.90;;;;;;7319420;32;20108;-61
2022/04/19 06:43:31;;;;;;;10.38;4.78;;;7.00;99.90;;;;;;7322755;32;20166;-61
2022/04/19 06:47:34;;;;;;;10.40;4.70;;;7.40;99.90;;;;;;7314790;32;20191;-60
2022/04/19 06:51:36;;;;;;;8.27;5.20;;;7.80;99.90;;;;;;7317750;32;20112;-61
2022/04/19 06:55:38;;;;;;;9.23;4.90;;;8.30;99.90;;;;;;7316106;32;20151;-61
2022/04/19 06:59:39;;;;;;;7.62;4.97;;;8.80;99.90;;;;;;7314991;32;20877;-61
2022/04/19 07:03:41;;;;;;;9.88;5.35;;;9.40;99.90;;;;;;7299248;32;20175;-60
2022/04/19 07:07:43;;;;;;;8.13;4.65;;;9.90;99.90;;;;;;7299365;32;20520;-60
2022/04/19 07:11:45;;;;;;;6.85;4.35;;;10.00;99.90;;;;;;7285851;32;20201;-61
2022/04/19 07:15:46;;;;;;;8.30;5.00;;;10.40;99.90;;;;;;7300174;32;20209;-62
2022/04/19 07:26:37;;;;;;;8.50;4.85;;;11.40;99.90;;;;;;7319338;32;20123;-61
2022/04/19 07:28:48;;;;;;;8.45;5.15;;;11.80;99.90;;;;;;7311806;32;20104;-61
2022/04/19 07:32:50;;;;;;;7.87;5.50;;;12.10;99.90;;;;;;7314836;32;20727;-60
2022/04/19 07:36:52;;;;;;;7.57;5.37;;;12.50;99.90;;;;;;7314617;32;20165;-61
2022/04/19 07:40:54;;;;;;;6.72;4.95;;;12.30;99.90;;;;;;7313685;32;20580;-61
2022/04/19 07:44:56;;;;;;;7.37;5.22;;;12.40;99.90;;;;;;7314753;32;20693;-60
2022/04/19 07:48:58;;;;;;;9.02;5.40;;;12.50;99.90;;;;;;7312452;32;20241;-61
2022/04/19 07:53:01;;;;;;;7.87;5.45;;;12.70;99.90;;;;;;7316055;32;20214;-61
2022/04/19 07:57:03;;;;;;;7.22;5.30;;;13.00;99.10;;;;;;7299414;32;20683;-60
2022/04/19 08:01:05;;;;;;;8.52;5.65;;;13.00;96.40;;;;;;7313698;32;20294;-61
2022/04/19 08:05:07;;;;;;;8.45;5.47;;;13.00;95.80;;;;;;7311688;32;20138;-61
2022/04/19 08:09:09;;;;;;;6.50;5.10;;;13.20;95.30;;;;;;7310459;32;20112;-61
2022/04/19 08:13:11;;;;;;;9.70;5.72;;;13.50;95.00;;;;;;7315252;32;20581;-60
2022/04/19 08:17:14;;;;;;;6.78;5.70;;;13.70;93.30;;;;;;7314985;32;20297;-61
2022/04/19 08:21:17;;;;;;;8.85;5.50;;;13.90;90.80;;;;;;7315784;32;20555;-61
2022/04/19 08:25:21;;;;;;;7.00;4.72;;;14.10;88.10;;;;;;7308062;32;20142;-61
2022/04/19 08:29:22;;;;;;;7.95;5.30;;;14.40;89.80;;;;;;7309159;32;20103;-61
2022/04/19 08:33:24;;;;;;;8.48;5.62;;;14.20;87.40;;;;;;7309217;32;20114;-59
2022/04/19 08:37:34;;;;;;;9.98;5.82;;;14.20;87.40;;;;;;7312863;32;20107;-60
2022/04/19 08:41:37;;;;;;;9.25;6.40;;;14.30;84.80;;;;;;7313110;32;20112;-61
2022/04/19 08:45:38;;;;;;;10.07;6.07;;;14.50;85.40;;;;;;7313152;32;20626;-64
2022/04/19 08:49:42;;;;;;;7.53;5.45;;;15.00;81.20;;;;;;7311404;32;20130;-62
2022/04/19 08:58:05;;;;;;;7.87;5.90;;;15.20;79.60;;;;;;7314532;32;20187;-61
2022/04/19 09:02:17;;;;;;;9.40;5.62;;;15.80;75.00;;;;;;7313328;32;20121;-62
2022/04/19 09:06:53;;;;;;;8.55;5.25;;;15.70;76.20;;;;;;7317806;32;20113;-61
2022/04/19 09:11:06;;;;;;;7.60;5.70;;;15.80;73.70;;;;;;7313211;32;20190;-63
2022/04/19 09:15:08;;;;;;;8.20;5.35;;;16.30;71.50;;;;;;7305918;32;20776;-64
2022/04/19 09:19:17;;;;;;;8.95;5.60;;;16.20;71.60;;;;;;7315614;32;20369;-62
2022/04/19 09:23:19;;;;;;;7.57;5.35;;;16.80;70.70;;;;;;7310594;32;20129;-62
2022/04/19 09:27:32;;;;;;;7.05;5.00;;;16.90;67.40;;;;;;7317067;32;20103;-62
2022/04/19 09:31:34;;;;;;;7.50;5.03;;;16.70;67.70;;;;;;7317228;32;20129;-63
2022/04/19 09:35:54;;;;;;;8.35;4.37;;;16.90;66.90;;;;;;7315244;32;20347;-64
2022/04/19 09:39:56;;;;;;;6.62;4.93;;;17.50;70.00;;;;;;7316729;32;20213;-64
2022/04/19 09:44:08;;;;;;;6.20;4.43;;;17.90;63.70;;;;;;7318049;32;20767;-62
2022/04/19 09:48:16;;;;;;;6.90;5.50;;;17.80;65.00;;;;;;7314789;32;20242;-64
2022/04/19 09:52:20;;;;;;;6.07;3.92;;;18.10;63.60;;;;;;7310007;32;20739;-64
2022/04/19 09:56:22;;;;;;;7.53;4.50;;;18.30;63.80;;;;;;7320447;32;20699;-65
2022/04/19 10:00:45;;;;;;;7.00;4.25;;;18.90;65.70;;;;;;7318650;32;20122;-65
2022/04/19 10:09:08;;;;;;;5.68;4.53;;;19.50;57.50;;;;;;7315801;32;20347;-72
2022/04/19 10:13:10;;;;;;;4.43;3.65;;;19.40;56.90;;;;;;7319953;32;20138;-72
2022/04/19 10:17:15;;;;;;;4.18;3.50;;;20.40;56.90;;;;;;7319138;32;20099;-70
2022/04/19 10:21:20;;;;;;;4.10;3.60;;;20.70;55.50;;;;;;7320774;32;20939;-75
2022/04/19 10:25:23;;;;;;;5.07;3.50;;;21.00;54.60;;;;;;7316570;32;20122;-65
2022/04/19 10:29:30;;;;;;;5.45;3.70;;;20.40;53.50;;;;;;7315486;32;20142;-67
2022/04/19 10:33:38;;;;;;;5.18;3.37;;;19.90;54.00;;;;;;7316361;32;20187;-69
2022/04/19 10:37:41;;;;;;;4.32;3.42;;;19.80;56.10;;;;;;7312961;32;20297;-66
2022/04/19 10:41:58;;;;;;;5.07;2.90;;;19.30;57.10;;;;;;7315381;32;20409;-63
2022/04/19 10:46:19;;;;;;;;;;;19.30;56.20;;;;;;7309707;32;20650;-67
2022/04/19 10:50:29;;;;;;;5.62;3.42;;;19.20;56.50;;;;;;7316360;32;20002;-66
2022/04/19 10:55:09;;;;;;;8.35;2.58;;;18.60;56.80;;;;;;7297572;32;21375;-67
2022/04/19 10:59:21;;;;;;;6.65;3.17;;;18.30;57.00;;;;;;7312247;32;20233;-68
2022/04/19 11:03:25;;;;;;;3.80;3.08;;;17.90;57.50;;;;;;7315960;32;20096;-68
2022/04/19 11:07:46;;;;;;;3.70;2.50;;;17.80;59.50;;;;;;7314343;32;20219;-66
2022/04/19 11:11:53;;;;;;;4.10;2.80;;;17.90;58.60;;;;;;7314292;32;20099;-64
2022/04/19 11:16:05;;;;;;;;;;;17.70;60.10;;;;;;7310106;32;20119;-62
2022/04/19 11:20:15;;;;;;;3.70;2.70;;;17.90;59.80;;;;;;7307698;32;20492;-73
2022/04/19 11:24:56;;;;;;;3.20;2.25;;;17.90;58.00;;;;;;7313058;32;20489;-72
2022/04/19 11:29:10;;;;;;;5.62;2.72;;;17.90;57.60;;;;;;7312307;32;20106;-73
2022/04/19 11:33:24;;;;;;;4.15;2.78;;;18.00;61.00;;;;;;7318081;32;21332;-73
2022/04/19 11:37:26;;;;;;;4.82;2.80;;;17.90;58.70;;;;;;7314925;32;20214;-73
2022/04/19 11:50:24;;;;;;;5.37;3.00;;;17.70;58.10;;;;;;7310368;32;20664;-72
2022/04/19 11:54:32;;;;;;;7.53;3.90;;;17.90;58.70;;;;;;7316377;32;20221;-71
2022/04/19 11:58:36;;;;;;;6.22;3.95;;;17.80;60.60;;;;;;7301485;32;20095;-74
2022/04/19 12:02:38;;;;;;;8.65;4.37;;;18.00;62.30;;;;;;7316093;32;20153;-74
2022/04/19 12:06:53;;;;;;;6.78;4.40;;;17.90;59.80;;;;;;7315273;32;20149;-73
2022/04/19 12:10:57;;;;;;;8.48;4.47;;;18.00;58.50;;;;;;7315657;32;20214;-73
2022/04/19 12:14:59;;;;;;;6.22;4.30;;;18.20;60.30;;;;;;7316374;32;20333;-72
2022/04/19 12:19:03;;;;;;;6.50;4.15;;;18.10;58.90;;;;;;7315795;32;20234;-69
2022/04/19 12:23:15;;;;;;;7.68;4.37;;;18.10;61.40;;;;;;7317330;32;20219;-71
2022/04/19 12:27:23;;;;;;;6.47;4.60;;;18.10;60.70;;;;;;7312923;32;20198;-73
2022/04/19 12:31:32;;;;;;;6.90;4.87;;;18.20;61.80;;;;;;7315959;32;20107;-73
2022/04/19 12:35:34;;;;;;;7.20;4.28;;;18.40;60.50;;;;;;7313663;32;20099;-73
2022/04/19 12:39:36;;;;;;;8.60;4.57;;;18.40;58.30;;;;;;7314155;32;20277;-70
2022/04/19 12:43:43;;;;;;;8.05;3.58;;;17.90;58.10;;;;;;7319159;32;20187;-75
2022/04/19 12:47:49;;;;;;;7.67;5.83;;;17.90;60.00;;;;;;7295736;32;20186;-73
2022/04/19 12:52:07;;;;;;;6.18;4.12;;;18.00;59.80;;;;;;7309130;32;20385;-74
2022/04/19 12:56:49;;;;;;;9.60;3.85;;;18.00;60.10;;;;;;7320928;32;20460;-73
2022/04/19 13:00:57;;;;;;;9.43;5.35;;;18.10;58.10;;;;;;7316865;32;20575;-73
2022/04/19 13:04:59;;;;;;;9.32;4.00;;;18.20;59.00;;;;;;7316828;32;20108;-74
2022/04/19 13:13:21;;;;;;;9.55;4.00;;;18.20;58.50;;;;;;7314319;32;21185;-72
2022/04/19 13:17:24;;;;;;;9.27;5.65;;;18.00;59.00;;;;;;7314697;32;20111;-69
2022/04/19 13:21:26;;;;;;;6.28;3.92;;;18.10;59.60;;;;;;7321630;32;20382;-74
2022/04/19 13:25:40;;;;;;;7.60;4.97;;;18.20;59.80;;;;;;7322575;32;20165;-75
2022/04/19 13:29:42;;;;;;;5.97;4.50;;;18.30;61.10;;;;;;7318884;32;20110;-77
2022/04/19 13:33:44;;;;;;;5.82;4.20;;;17.90;59.70;;;;;;7320165;32;20127;-77
2022/04/19 13:42:06;;;;;;;5.82;4.25;;;18.30;59.80;;;;;;7314632;32;20130;-75
2022/04/19 13:46:08;;;;;;;5.25;3.85;;;18.20;61.50;;;;;;7316504;32;20647;-72
2022/04/19 13:50:10;;;;;;;6.28;4.22;;;18.20;62.30;;;;;;7316208;32;20687;-74
2022/04/19 13:54:18;;;;;;;9.35;5.55;;;18.20;62.90;;;;;;7311137;32;20128;-73
2022/04/19 13:58:19;;;;;;;7.43;4.75;;;17.90;61.50;;;;;;7309107;32;20626;-75
2022/04/19 14:02:21;;;;;;;7.12;4.65;;;17.90;63.50;;;;;;7311276;32;20784;-74
2022/04/19 14:06:23;;;;;;;5.55;4.18;;;18.20;63.60;;;;;;7316184;32;20100;-73
2022/04/19 14:10:25;;;;;;;8.80;5.07;;;18.40;63.60;;;;;;7317065;32;20229;-72
2022/04/19 14:14:26;;;;;;;11.82;6.10;;;18.50;64.50;;;;;;7317795;32;20197;-74
2022/04/19 14:18:28;;;;;;;29.10;6.85;;;18.50;63.30;;;;;;7315249;32;20099;-73
2022/04/19 14:22:30;;;;;;;6.20;4.80;;;18.70;64.20;;;;;;7313968;32;20575;-74
2022/04/19 14:26:32;;;;;;;7.50;4.90;;;18.60;64.70;;;;;;7315867;32;20231;-72
2022/04/19 14:34:54;;;;;;;6.65;4.60;;;18.30;64.70;;;;;;7315298;32;20127;-73
2022/04/19 14:38:56;;;;;;;7.50;4.22;;;18.50;65.40;;;;;;7315052;32;20489;-72
2022/04/19 14:42:57;;;;;;;6.43;3.55;;;18.60;63.80;;;;;;7317496;32;20551;-72
2022/04/19 14:47:00;;;;;;;7.87;3.58;;;18.50;62.50;;;;;;7314899;32;20254;-75
2022/04/19 14:55:22;;;;;;;8.65;3.50;;;18.30;63.00;;;;;;7315902;32;20103;-72
2022/04/19 14:59:24;;;;;;;4.93;2.85;;;18.20;63.60;;;;;;7316217;32;20151;-71
2022/04/19 15:03:25;;;;;;;4.12;3.10;;;18.10;62.00;;;;;;7315530;32;20103;-72
2022/04/19 15:07:27;;;;;;;7.50;3.55;;;17.70;62.90;;;;;;7317174;32;20213;-71
2022/04/19 15:11:29;;;;;;;12.15;6.50;;;17.70;63.40;;;;;;7310352;32;20092;-73
2022/04/19 15:15:30;;;;;;;6.95;4.18;;;17.70;63.50;;;;;;7313324;32;20291;-72
2022/04/19 15:19:32;;;;;;;11.48;3.70;;;17.70;63.30;;;;;;7316660;32;20150;-74
2022/04/19 15:23:36;;;;;;;5.97;3.35;;;17.70;67.10;;;;;;7318864;32;20161;-72
2022/04/19 15:27:37;;;;;;;4.62;3.12;;;17.70;63.40;;;;;;7317159;32;20220;-74
2022/04/19 15:31:40;;;;;;;4.80;2.80;;;17.50;61.60;;;;;;7314839;32;20243;-73
2022/04/19 15:35:41;;;;;;;5.53;2.67;;;17.40;61.60;;;;;;7318867;32;20228;-74
2022/04/19 15:39:43;;;;;;;5.82;2.80;;;17.50;63.80;;;;;;7317313;32;20766;-74
2022/04/19 15:43:45;;;;;;;8.55;3.58;;;17.50;64.70;;;;;;7318832;32;20165;-73
2022/04/19 15:47:46;;;;;;;7.00;3.45;;;17.40;63.30;;;;;;7318249;32;20126;-72
2022/04/19 15:51:50;;;;;;;7.80;2.80;;;17.30;61.90;;;;;;7317096;32;20119;-71
2022/04/19 15:55:51;;;;;;;4.10;2.15;;;17.10;62.40;;;;;;7315031;32;20124;-71
2022/04/19 15:59:53;;;;;;;5.00;2.40;;;17.20;59.60;;;;;;7317360;32;20305;-75
2022/04/19 16:03:55;;;;;;;7.55;2.08;;;16.80;59.50;;;;;;7317590;32;20675;-72
2022/04/19 16:07:57;;;;;;;3.15;1.85;;;16.80;61.70;;;;;;7316808;32;20599;-73
2022/04/19 16:11:59;;;;;;;2.87;1.62;;;16.90;60.60;;;;;;7323759;32;20107;-72
2022/04/19 16:24:41;;;;;;;4.70;1.17;;;16.70;59.80;;;;;;7315932;32;20557;-71
2022/04/19 16:28:44;;;;;;;2.47;0.80;;;16.70;60.00;;;;;;7317332;32;20107;-75
2022/04/19 16:32:46;;;;;;;4.20;0.73;;;16.70;58.00;;;;;;7310442;32;20150;-73
2022/04/19 16:36:48;;;;;;;3.90;0.90;;;16.60;58.10;;;;;;7314596;32;20103;-73
2022/04/19 16:40:49;;;;;;;1.70;0.90;;;16.50;55.80;;;;;;7314708;32;20134;-69
2022/04/19 16:44:52;;;;;;;3.33;1.00;;;16.40;56.50;;;;;;7303818;32;20910;-68
2022/04/19 16:48:53;;;;;;;1.90;0.70;;;16.40;57.00;;;;;;7315533;32;20115;-67
2022/04/19 16:52:57;;;;;;;1.33;0.95;;;16.40;56.90;;;;;;7319311;32;20116;-73
2022/04/19 16:56:59;;;;;;;2.90;1.00;;;16.40;55.20;;;;;;7318113;32;20134;-64
2022/04/19 17:01:00;;;;;;;2.37;1.20;;;16.30;55.90;;;;;;7322564;32;20118;-74
2022/04/19 17:05:04;;;;;;;2.97;1.23;;;16.20;55.80;;;;;;7319551;32;20129;-73
2022/04/19 17:09:09;;;;;;;2.30;1.50;;;16.00;57.00;;;;;;7315249;32;20134;-73
2022/04/19 17:13:10;;;;;;;1.83;1.08;;;15.80;56.60;;;;;;7318850;32;20559;-73
2022/04/19 17:17:12;;;;;;;3.12;0.82;;;15.70;56.80;;;;;;7318151;32;20108;-72
2022/04/19 17:21:14;;;;;;;2.65;1.10;;;15.60;57.10;;;;;;7315445;32;20553;-73
2022/04/19 17:25:16;;;;;;;3.37;0.90;;;15.70;56.20;;;;;;7317861;32;20115;-73
2022/04/19 17:29:17;;;;;;;1.73;0.90;;;15.50;57.50;;;;;;7321837;32;20202;-74
2022/04/19 17:33:19;;;;;;;2.72;0.90;;;15.30;58.10;;;;;;7322307;32;20111;-73
2022/04/19 17:37:20;;;;;;;1.40;0.80;;;15.30;57.90;;;;;;7322590;32;20160;-73
2022/04/19 17:41:25;;;;;;;2.15;0.90;;;15.20;58.00;;;;;;7321073;32;20126;-73
2022/04/19 17:45:27;;;;;;;1.45;0.88;;;15.00;58.10;;;;;;7318986;32;20183;-69
2022/04/19 17:49:29;;;;;;;3.75;1.00;;;14.90;58.90;;;;;;7315989;32;20479;-73
2022/04/19 17:57:51;;;;;;;1.48;0.82;;;14.80;58.50;;;;;;7315976;32;20885;-73
2022/04/19 18:01:52;;;;;;;4.35;1.27;;;14.70;59.30;;;;;;7319889;32;20123;-74
2022/04/19 18:05:54;;;;;;;2.25;1.50;;;14.50;60.90;;;;;;7321603;32;20571;-74
2022/04/19 18:09:56;;;;;;;4.82;1.30;;;14.40;60.90;;;;;;7320742;32;20115;-72
2022/04/19 18:13:58;;;;;;;2.50;1.75;;;14.40;60.40;;;;;;7314964;32;20198;-76
2022/04/19 18:17:59;;;;;;;3.55;1.50;;;14.20;61.20;;;;;;7317890;32;20512;-75
2022/04/19 18:26:22;;;;;;;3.03;1.30;;;14.00;62.30;;;;;;7315129;32;20111;-75
2022/04/19 18:30:24;;;;;;;2.30;1.20;;;13.90;62.00;;;;;;7321109;32;20230;-75
2022/04/19 18:34:26;;;;;;;7.70;1.55;;;13.90;62.70;;;;;;7316766;32;20126;-71
2022/04/19 18:38:29;;;;;;;5.30;1.80;;;13.80;62.00;;;;;;7320806;32;20700;-70
2022/04/19 18:42:30;;;;;;;2.08;1.42;;;13.80;62.60;;;;;;7318777;32;20174;-72
2022/04/19 18:46:32;;;;;;;5.60;1.48;;;13.60;64.50;;;;;;7318365;32;20187;-68
2022/04/19 18:50:34;;;;;;;4.30;1.70;;;13.50;64.60;;;;;;7318365;32;20107;-69
2022/04/19 18:54:36;;;;;;;3.33;1.73;;;13.40;65.80;;;;;;7321101;32;20143;-69
2022/04/19 18:58:39;;;;;;;5.00;1.80;;;13.30;66.20;;;;;;7321357;32;20202;-69
2022/04/19 19:02:47;;;;;;;2.92;1.60;;;13.20;67.70;;;;;;7311021;32;20134;-69
2022/04/19 19:06:56;;;;;;;3.72;2.45;;;13.20;67.30;;;;;;7316890;32;20206;-69
2022/04/19 19:10:59;;;;;;;4.53;2.08;;;13.10;68.90;;;;;;7320457;32;20613;-67
2022/04/19 19:15:01;;;;;;;4.00;1.95;;;12.90;69.90;;;;;;7314652;32;20780;-66
2022/04/19 19:19:04;;;;;;;4.53;1.95;;;12.80;69.20;;;;;;7316019;32;20893;-68
2022/04/19 19:23:06;;;;;;;3.22;1.85;;;12.90;69.40;;;;;;7320802;32;20243;-68
2022/04/19 19:27:08;;;;;;;4.72;1.90;;;12.90;69.10;;;;;;7317759;32;20793;-69
2022/04/19 19:31:10;;;;;;;2.78;1.75;;;12.70;70.20;;;;;;7312194;32;20107;-66
2022/04/19 19:35:11;;;;;;;3.00;1.55;;;12.70;71.10;;;;;;7317810;32;20688;-68
2022/04/19 19:39:15;;;;;;;3.65;1.83;;;12.70;70.90;;;;;;7316186;32;20530;-69
2022/04/19 19:43:17;;;;;;;4.05;1.50;;;12.60;71.80;;;;;;7320612;32;20107;-68
2022/04/19 19:47:20;;;;;;;2.60;1.75;;;12.50;71.60;;;;;;7318906;32;20111;-70
2022/04/19 19:51:23;;;;;;;4.78;2.78;;;12.40;72.50;;;;;;7316010;32;20108;-68
2022/04/19 19:55:25;;;;;;;4.37;1.77;;;12.30;73.10;;;;;;7310283;32;20133;-68
2022/04/19 19:59:26;;;;;;;5.18;2.12;;;12.30;75.10;;;;;;7307685;32;20785;-71
2022/04/19 20:03:28;;;;;;;3.22;1.58;;;12.20;74.90;;;;;;7318114;32;20194;-70
2022/04/19 20:07:31;;;;;;;2.33;1.60;;;12.10;75.10;;;;;;7314776;32;20515;-69
2022/04/19 20:11:33;;;;;;;3.67;1.98;;;12.10;75.50;;;;;;7320331;32;20607;-69
2022/04/19 20:15:34;;;;;;;7.43;2.05;;;12.20;74.80;;;;;;7315929;32;20157;-68
2022/04/19 20:19:39;;;;;;;4.22;1.92;;;12.20;74.90;;;;;;7318358;32;20127;-70
2022/04/19 20:23:41;;;;;;;3.78;2.10;;;12.20;74.30;;;;;;7315656;32;20150;-72
2022/04/19 20:27:43;;;;;;;3.83;1.87;;;12.20;74.10;;;;;;7315920;32;20122;-70
2022/04/19 20:31:45;;;;;;;3.50;2.03;;;12.10;74.70;;;;;;7314343;32;20108;-70
2022/04/19 20:35:46;;;;;;;6.95;1.80;;;12.10;73.60;;;;;;7316679;32;20735;-69
2022/04/19 20:39:48;;;;;;;3.72;1.90;;;12.00;74.60;;;;;;7314789;32;20195;-68
2022/04/19 20:43:50;;;;;;;3.17;1.85;;;12.10;73.60;;;;;;7313846;32;20122;-69
2022/04/19 20:52:13;;;;;;;5.05;1.90;;;12.00;75.20;;;;;;7313926;32;22351;-67
2022/04/19 20:56:15;;;;;;;3.40;1.98;;;12.00;72.80;;;;;;7315371;32;20120;-69
2022/04/19 21:00:23;;;;;;;4.75;1.95;;;11.90;73.70;;;;;;7319630;32;20129;-69
2022/04/19 21:04:24;;;;;;;4.05;1.92;;;12.00;73.40;;;;;;7322693;32;20402;-71
2022/04/19 21:08:26;;;;;;;5.22;1.90;;;11.80;73.10;;;;;;7324633;32;20138;-70
2022/04/19 21:12:32;;;;;;;2.47;1.50;;;11.90;72.30;;;;;;7328675;32;20218;-70
2022/04/19 21:16:34;;;;;;;4.22;2.12;;;11.80;72.70;;;;;;7321948;32;20268;-70
2022/04/19 21:20:35;;;;;;;3.15;1.60;;;11.90;72.00;;;;;;7322081;32;20165;-71
2022/04/19 21:24:40;;;;;;;4.55;2.08;;;11.80;71.70;;;;;;7321770;32;20130;-68
2022/04/19 21:28:42;;;;;;;3.65;1.60;;;11.70;73.20;;;;;;7317671;32;20222;-70
2022/04/19 21:32:45;;;;;;;3.60;2.00;;;11.60;73.40;;;;;;7314208;32;20194;-71
2022/04/19 21:36:47;;;;;;;3.50;1.80;;;11.60;76.90;;;;;;7320589;32;20206;-71
2022/04/19 21:40:48;;;;;;;5.03;1.75;;;11.50;78.60;;;;;;7318078;32;20211;-69
2022/04/19 21:44:50;;;;;;;3.12;1.77;;;11.40;76.90;;;;;;7317612;32;20139;-71
2022/04/19 21:48:52;;;;;;;3.17;1.80;;;11.20;80.10;;;;;;7320558;32;20183;-71
2022/04/19 21:53:00;;;;;;;3.45;1.70;;;11.10;81.90;;;;;;7319932;32;20504;-71
2022/04/19 21:57:02;;;;;;;3.42;1.90;;;11.00;83.40;;;;;;7317308;32;20134;-70
2022/04/19 22:01:04;;;;;;;2.70;1.60;;;10.80;82.80;;;;;;7324399;32;20584;-70
2022/04/19 22:05:06;;;;;;;4.50;1.92;;;10.70;85.00;;;;;;7324776;32;20276;-70
2022/04/19 22:09:08;;;;;;;4.05;1.67;;;10.70;88.40;;;;;;7323467;32;20112;-71
2022/04/19 22:13:09;;;;;;;4.90;1.50;;;10.40;90.10;;;;;;7323323;32;20629;-71
2022/04/19 22:17:11;;;;;;;2.85;1.60;;;10.20;92.00;;;;;;7324666;32;20107;-71
2022/04/19 22:21:13;;;;;;;4.32;1.73;;;9.90;96.60;;;;;;7322952;32;20301;-71
2022/04/19 22:25:14;;;;;;;3.00;1.40;;;9.70;99.40;;;;;;7317066;32;20689;-70
2022/04/19 22:29:16;;;;;;;2.85;1.30;;;9.50;99.90;;;;;;7319062;32;20365;-69
2022/04/19 22:33:18;;;;;;;6.62;1.70;;;9.30;99.90;;;;;;7322507;32;20232;-71
2022/04/19 22:37:19;;;;;;;3.50;1.45;;;9.10;99.90;;;;;;7320540;32;20111;-70